Terminal Aerodrome Forecast
Issued by NWS Paducah, KY

Home | Current Version | Previous Version | Text Only | Print | Product List | Glossary Off
Versions: 1 2 3 4 5 6 7 8 9 10 11 12 13 14 15 16

000
FTUS43 KPAH 210500
TAFEVV
TAF
KEVV 210520Z 2106/2206 22006KT P6SM SCT120 BKN250
     FM210700 25007KT P6SM VCSH SCT040 BKN090
     FM211300 30012G18KT P6SM SKC
     FM220000 33005KT P6SM SKC=

USA.gov is the U.S. government's official web portal to all federal, state and local government web resources and services.